createdAt,value
2023-03-19T00:02:21.444Z,100470.63
2023-03-19T00:04:49.459Z,100479.66
2023-03-19T00:07:17.564Z,100476.97
2023-03-19T00:09:48.381Z,100479.03
2023-03-19T00:12:16.742Z,100480.78
2023-03-19T00:14:44.732Z,100471.91
2023-03-19T00:17:12.776Z,100476.13
2023-03-19T00:19:40.957Z,100480.88
2023-03-19T00:22:09.108Z,100486.56
2023-03-19T00:24:37.024Z,100476.13
2023-03-19T00:27:06.708Z,100479.22
2023-03-19T00:29:34.735Z,100491.59
2023-03-19T00:32:03.431Z,100480.66
2023-03-19T00:34:31.393Z,100474.44
2023-03-19T00:36:59.306Z,100476.41
2023-03-19T00:39:27.240Z,100479.81
2023-03-19T00:41:55.154Z,100471.25
2023-03-19T00:44:24.518Z,100480.78
2023-03-19T00:46:52.443Z,100483.22
2023-03-19T00:49:20.362Z,100479.56
2023-03-19T00:51:48.369Z,100480.41
2023-03-19T00:54:16.312Z,100474.75
2023-03-19T00:56:44.224Z,100473.34
2023-03-19T00:59:12.128Z,100458.59
2023-03-19T01:01:41.778Z,100467.47
2023-03-19T01:04:11.221Z,100462.81
2023-03-19T01:06:39.158Z,100465.22
2023-03-19T01:09:07.400Z,100455.50
2023-03-19T01:11:35.329Z,100463.94
2023-03-19T01:14:03.288Z,100466.34
2023-03-19T01:16:31.254Z,100467.19
2023-03-19T01:19:00.521Z,100467.19
2023-03-19T01:21:31.005Z,100460.56
2023-03-19T01:23:58.987Z,100468.00
2023-03-19T01:26:27.415Z,100473.06
2023-03-19T01:28:55.874Z,100471.28
2023-03-19T01:31:23.945Z,100473.53
2023-03-19T01:33:51.966Z,100476.31
2023-03-19T01:36:21.339Z,100478.44
2023-03-19T01:38:49.333Z,100473.91
2023-03-19T01:41:17.308Z,100482.94
2023-03-19T01:43:45.267Z,100474.44
2023-03-19T01:46:17.403Z,100478.09
2023-03-19T01:48:46.535Z,100477.97
2023-03-19T01:51:15.854Z,100472.50
2023-03-19T01:53:47.321Z,100471.53
2023-03-19T01:56:16.349Z,100467.72
2023-03-19T01:58:44.928Z,100466.88
2023-03-19T02:01:12.944Z,100464.94
2023-03-19T02:03:41.400Z,100473.34
2023-03-19T02:06:09.485Z,100479.69
2023-03-19T02:08:37.601Z,100473.69
2023-03-19T02:11:07.882Z,100478.75
2023-03-19T02:13:35.845Z,100480.81
2023-03-19T02:16:04.388Z,100479.31
2023-03-19T02:18:32.406Z,100481.84
2023-03-19T02:21:03.078Z,100479.06
2023-03-19T02:23:35.980Z,100480.47
2023-03-19T02:26:06.404Z,100489.47
2023-03-19T02:28:34.439Z,100491.91
2023-03-19T02:31:02.451Z,100485.22
2023-03-19T02:33:30.555Z,100490.59
2023-03-19T02:35:58.498Z,100489.31
2023-03-19T02:38:27.078Z,100490.59
2023-03-19T02:40:56.599Z,100491.16
2023-03-19T02:43:25.987Z,100489.03
2023-03-19T02:45:53.950Z,100492.00
2023-03-19T02:48:21.906Z,100491.00
2023-03-19T02:50:49.878Z,100493.38
2023-03-19T02:53:18.138Z,100490.56
2023-03-19T02:55:46.074Z,100489.44
2023-03-19T02:58:14.063Z,100490.03
2023-03-19T03:00:43.560Z,100493.38
2023-03-19T03:03:11.682Z,100498.44
2023-03-19T03:05:39.584Z,100497.06
2023-03-19T03:08:07.577Z,100503.81
2023-03-19T03:10:35.738Z,100496.19
2023-03-19T03:13:04.637Z,100489.53
2023-03-19T03:15:33.064Z,100499.25
2023-03-19T03:18:02.363Z,100507.16
2023-03-19T03:20:30.652Z,100500.66
2023-03-19T03:22:58.711Z,100507.69
2023-03-19T03:25:26.613Z,100507.00
2023-03-19T03:27:54.527Z,100509.69
2023-03-19T03:30:22.470Z,100508.84
2023-03-19T03:32:50.405Z,100518.59
2023-03-19T03:35:22.587Z,100518.19
2023-03-19T03:37:50.619Z,100512.84
2023-03-19T03:40:18.801Z,100515.22
2023-03-19T03:42:46.771Z,100510.56
2023-03-19T03:45:15.362Z,100519.28
2023-03-19T03:47:43.438Z,100522.97
2023-03-19T03:50:12.774Z,100523.78
2023-03-19T03:52:42.155Z,100519.28
2023-03-19T03:55:10.741Z,100516.47
2023-03-19T03:57:38.679Z,100514.75
2023-03-19T04:00:07.459Z,100517.91
2023-03-19T04:02:35.432Z,100516.22
2023-03-19T04:05:03.364Z,100518.19
2023-03-19T04:07:31.279Z,100517.47
2023-03-19T04:10:00.626Z,100516.50
2023-03-19T04:12:28.553Z,100513.16
2023-03-19T04:14:56.457Z,100505.53
2023-03-19T04:17:24.424Z,100501.06
2023-03-19T04:19:52.375Z,100508.41
2023-03-19T04:22:20.327Z,100503.22
2023-03-19T04:24:48.241Z,100501.72
2023-03-19T04:27:17.518Z,100501.16
2023-03-19T04:29:45.429Z,100505.94
2023-03-19T04:32:13.336Z,100504.00
2023-03-19T04:34:41.825Z,100506.25
2023-03-19T04:37:10.425Z,100505.53
2023-03-19T04:39:38.344Z,100511.56
2023-03-19T04:42:06.456Z,100507.44
2023-03-19T04:44:35.778Z,100511.41
2023-03-19T04:47:03.731Z,100512.66
2023-03-19T04:49:32.256Z,100516.91
2023-03-19T04:52:00.869Z,100512.94
2023-03-19T04:54:28.846Z,100517.50
2023-03-19T04:56:56.790Z,100513.81
2023-03-19T04:59:27.006Z,100521.44
2023-03-19T05:01:56.761Z,100505.34
2023-03-19T05:04:25.141Z,100507.34
2023-03-19T05:06:54.041Z,100521.16
2023-03-19T05:09:22.025Z,100523.25
2023-03-19T05:11:49.989Z,100515.09
2023-03-19T05:14:17.910Z,100524.28
2023-03-19T05:16:45.871Z,100515.44
2023-03-19T05:19:15.197Z,100518.25
2023-03-19T05:21:43.159Z,100517.81
2023-03-19T05:24:11.080Z,100520.56
2023-03-19T05:26:38.988Z,100519.56
2023-03-19T05:29:10.754Z,100521.94
2023-03-19T05:31:39.336Z,100531.22
2023-03-19T05:34:07.928Z,100527.28
2023-03-19T05:36:37.237Z,100532.25
2023-03-19T05:39:06.087Z,100529.47
2023-03-19T05:41:33.984Z,100524.44
2023-03-19T05:44:02.102Z,100526.22
2023-03-19T05:46:30.160Z,100526.13
2023-03-19T05:48:58.233Z,100533.94
2023-03-19T05:51:26.467Z,100536.59
2023-03-19T05:53:55.781Z,100516.34
2023-03-19T05:56:23.736Z,100521.50
2023-03-19T05:58:51.852Z,100516.13
2023-03-19T06:01:19.843Z,100514.13
2023-03-19T06:03:47.850Z,100514.88
2023-03-19T06:06:15.821Z,100514.38
2023-03-19T06:08:43.983Z,100512.19
2023-03-19T06:11:13.306Z,100514.38
2023-03-19T06:13:43.455Z,100515.19
2023-03-19T06:16:11.746Z,100509.84
2023-03-19T06:18:39.856Z,100520.50
2023-03-19T06:21:07.838Z,100508.56
2023-03-19T06:23:36.116Z,100501.97
2023-03-19T06:26:04.705Z,100503.28
2023-03-19T06:28:34.132Z,100496.50
2023-03-19T06:31:02.122Z,100501.25
2023-03-19T06:33:32.293Z,100504.06
2023-03-19T06:36:00.346Z,100499.56
2023-03-19T06:38:28.456Z,100501.88
2023-03-19T06:40:56.403Z,100508.75
2023-03-19T06:43:24.557Z,100509.28
2023-03-19T06:45:53.950Z,100512.97
2023-03-19T06:48:21.985Z,100506.56
2023-03-19T06:50:49.922Z,100515.44
2023-03-19T06:53:17.830Z,100521.78
2023-03-19T06:55:47.096Z,100519.94
2023-03-19T06:58:15.085Z,100517.63
2023-03-19T07:00:43.063Z,100520.13
2023-03-19T07:03:12.385Z,100521.16
2023-03-19T07:05:40.539Z,100533.97
2023-03-19T07:08:12.006Z,100530.16
2023-03-19T07:10:40.062Z,100526.09
2023-03-19T07:13:08.054Z,100523.13
2023-03-19T07:15:36.355Z,100517.03
2023-03-19T07:18:05.189Z,100526.78
2023-03-19T07:20:34.653Z,100523.78
2023-03-19T07:23:02.729Z,100528.03
2023-03-19T07:25:30.711Z,100527.78
2023-03-19T07:27:58.631Z,100527.44
2023-03-19T07:30:26.568Z,100519.66
2023-03-19T07:32:54.503Z,100518.97
2023-03-19T07:35:22.812Z,100517.94
2023-03-19T07:37:52.201Z,100511.59
2023-03-19T07:40:20.276Z,100513.84
2023-03-19T07:42:48.251Z,100506.16
2023-03-19T07:45:16.235Z,100503.22
2023-03-19T07:47:44.229Z,100508.59
2023-03-19T07:50:12.407Z,100502.72
2023-03-19T07:52:40.382Z,100497.09
2023-03-19T07:55:10.799Z,100495.84
2023-03-19T07:57:38.750Z,100496.03
2023-03-19T08:00:08.276Z,100500.97
2023-03-19T08:02:36.288Z,100503.38
2023-03-19T08:05:04.872Z,100501.06
2023-03-19T08:07:32.872Z,100497.13
2023-03-19T08:10:00.929Z,100497.28
2023-03-19T08:12:30.266Z,100491.94
2023-03-19T08:14:58.220Z,100487.47
2023-03-19T08:17:27.279Z,100492.88
2023-03-19T08:19:55.250Z,100489.88
2023-03-19T08:22:23.228Z,100483.41
2023-03-19T08:24:51.246Z,100491.28
2023-03-19T08:27:19.223Z,100492.75
2023-03-19T08:29:48.583Z,100497.59
2023-03-19T08:32:16.590Z,100500.47
2023-03-19T08:34:44.605Z,100493.97
2023-03-19T08:37:12.756Z,100490.16
2023-03-19T08:39:41.003Z,100486.47
2023-03-19T08:42:09.164Z,100477.72
2023-03-19T08:44:37.127Z,100480.16
2023-03-19T08:47:06.732Z,100477.53
2023-03-19T08:49:34.763Z,100473.63
2023-03-19T08:52:02.855Z,100469.13
2023-03-19T08:54:31.058Z,100462.22
2023-03-19T08:56:59.023Z,100457.91
2023-03-19T08:59:27.001Z,100458.56
2023-03-19T09:01:56.140Z,100453.84
2023-03-19T09:04:25.603Z,100449.72
2023-03-19T09:06:53.593Z,100450.66
2023-03-19T09:09:21.645Z,100451.34
2023-03-19T09:11:49.653Z,100446.63
2023-03-19T09:14:19.913Z,100441.25
2023-03-19T09:16:47.986Z,100436.19
2023-03-19T09:19:15.965Z,100440.72
2023-03-19T09:21:46.448Z,100440.88
2023-03-19T09:24:14.463Z,100438.41
2023-03-19T09:26:42.440Z,100435.47
2023-03-19T09:29:10.448Z,100432.34
2023-03-19T09:31:38.468Z,100427.19
2023-03-19T09:34:08.951Z,100431.59
2023-03-19T09:36:37.052Z,100430.84
2023-03-19T09:39:06.527Z,100428.72
2023-03-19T09:41:37.084Z,100415.25
2023-03-19T09:44:05.772Z,100424.31
2023-03-19T09:46:39.774Z,100421.88
2023-03-19T09:49:12.786Z,100409.06
2023-03-19T09:51:44.716Z,100408.38
2023-03-19T09:54:33.068Z,100403.38
2023-03-19T09:57:01.098Z,100394.16
2023-03-19T09:59:29.485Z,100385.41
2023-03-19T10:02:00.881Z,100387.72
2023-03-19T10:04:40.509Z,100385.31
2023-03-19T10:07:13.609Z,100383.84
2023-03-19T10:09:51.224Z,100382.22
2023-03-19T10:12:26.634Z,100376.94
2023-03-19T10:15:11.500Z,100359.28
2023-03-19T10:17:40.752Z,100374.94
2023-03-19T10:20:10.609Z,100378.84
2023-03-19T10:22:39.964Z,100375.63
2023-03-19T10:25:11.065Z,100370.69
2023-03-19T10:27:39.051Z,100368.50
2023-03-19T10:30:14.801Z,100363.22
2023-03-19T10:32:43.406Z,100364.59
2023-03-19T10:35:18.021Z,100367.75
2023-03-19T10:37:45.965Z,100351.88
2023-03-19T10:40:21.698Z,100352.72
2023-03-19T10:42:57.325Z,100340.19
2023-03-19T10:45:27.818Z,100320.72
2023-03-19T10:47:57.005Z,100327.13
2023-03-19T10:50:29.846Z,100332.34
2023-03-19T10:53:04.112Z,100323.31
2023-03-19T10:55:33.685Z,100317.13
2023-03-19T10:58:06.175Z,100315.47
2023-03-19T11:00:35.610Z,100311.03
2023-03-19T11:03:04.887Z,100302.81
2023-03-19T11:05:34.013Z,100295.28
2023-03-19T11:08:03.120Z,100299.38
2023-03-19T11:10:32.321Z,100292.97
2023-03-19T11:13:04.418Z,100291.22
2023-03-19T11:15:36.202Z,100291.31
2023-03-19T11:18:08.193Z,100287.84
2023-03-19T11:20:37.208Z,100285.13
2023-03-19T11:23:12.138Z,100288.00
2023-03-19T11:25:41.668Z,100283.72
2023-03-19T11:28:14.161Z,100280.16
2023-03-19T11:30:47.677Z,100280.41
2023-03-19T11:33:21.096Z,100287.06
2023-03-19T11:35:52.224Z,100278.25
2023-03-19T11:38:23.181Z,100250.91
2023-03-19T11:40:53.777Z,100255.09
2023-03-19T11:43:56.028Z,100266.09
2023-03-19T11:46:35.885Z,100253.88
2023-03-19T11:49:17.018Z,100262.47
2023-03-19T11:51:48.168Z,100247.41
2023-03-19T11:54:21.851Z,100246.75
2023-03-19T11:56:50.321Z,100240.84
2023-03-19T11:59:33.605Z,100245.97
2023-03-19T12:02:18.550Z,100234.91
2023-03-19T12:05:10.500Z,100230.84
2023-03-19T12:07:41.984Z,100222.75
2023-03-19T12:10:26.333Z,100234.47
2023-03-19T12:12:57.037Z,100226.38
2023-03-19T12:15:28.335Z,100238.47
2023-03-19T12:18:01.835Z,100231.63
2023-03-19T12:20:36.272Z,100231.72
2023-03-19T12:23:07.838Z,100225.97
2023-03-19T12:25:42.778Z,100223.47
2023-03-19T12:28:14.632Z,100220.47
2023-03-19T12:30:46.169Z,100211.25
2023-03-19T12:33:34.707Z,100213.34
2023-03-19T12:36:02.768Z,100210.00
2023-03-19T12:38:33.044Z,100210.91
2023-03-19T12:41:02.506Z,100188.50
2023-03-19T12:43:34.150Z,100203.81
2023-03-19T12:46:04.317Z,100187.72
2023-03-19T12:48:34.430Z,100191.25
2023-03-19T12:51:05.481Z,100187.31
2023-03-19T12:53:36.998Z,100175.69
2023-03-19T12:56:08.259Z,100181.16
2023-03-19T12:58:40.430Z,100185.97
2023-03-19T13:01:12.477Z,100180.22
2023-03-19T13:03:42.486Z,100172.50
2023-03-19T13:06:11.860Z,100169.75
2023-03-19T13:08:42.817Z,100169.31
2023-03-19T13:11:12.747Z,100160.66
2023-03-19T13:13:42.856Z,100161.47
2023-03-19T13:16:17.609Z,100160.53
2023-03-19T13:18:48.398Z,100163.63
2023-03-19T13:21:23.017Z,100143.56
2023-03-19T13:23:52.818Z,100148.84
2023-03-19T13:26:20.843Z,100153.84
2023-03-19T13:28:56.088Z,100158.69
2023-03-19T13:31:26.689Z,100141.28
2023-03-19T13:34:00.902Z,100134.97
2023-03-19T13:36:28.901Z,100118.06
2023-03-19T13:38:56.888Z,100127.59
2023-03-19T13:41:50.396Z,100126.44
2023-03-19T13:44:45.680Z,100126.59
2023-03-19T13:47:40.259Z,100119.94
2023-03-19T13:50:52.048Z,100109.31
2023-03-19T13:53:40.670Z,100109.56
2023-03-19T13:56:26.237Z,100105.81
2023-03-19T13:59:27.086Z,100092.66
2023-03-19T14:01:55.261Z,100102.06
2023-03-19T14:04:26.480Z,100111.03
2023-03-19T14:06:55.108Z,100110.44
2023-03-19T14:09:43.488Z,100101.84
2023-03-19T14:12:33.979Z,100108.56
2023-03-19T14:15:03.160Z,100098.94
2023-03-19T14:17:33.000Z,100094.78
2023-03-19T14:20:09.003Z,100099.56
2023-03-19T14:22:38.583Z,100096.25
2023-03-19T14:25:17.676Z,100095.00
2023-03-19T14:27:47.280Z,100095.81
2023-03-19T14:30:22.473Z,100095.84
2023-03-19T14:32:50.586Z,100090.59
2023-03-19T14:35:20.968Z,100086.63
2023-03-19T14:37:50.207Z,100079.56
2023-03-19T14:40:18.785Z,100076.22
2023-03-19T14:42:54.729Z,100072.03
2023-03-19T14:45:33.194Z,100065.97
2023-03-19T14:48:29.654Z,100070.78
2023-03-19T14:51:30.903Z,100060.75
2023-03-19T14:54:02.146Z,100072.84
2023-03-19T14:56:32.892Z,100067.84
2023-03-19T14:59:03.931Z,100070.34
2023-03-19T15:01:32.619Z,100073.25
2023-03-19T15:04:03.133Z,100063.22
2023-03-19T15:06:32.919Z,100062.38
2023-03-19T15:09:02.710Z,100066.16
2023-03-19T15:11:43.440Z,100053.16
2023-03-19T15:14:17.893Z,100068.16
2023-03-19T15:16:48.982Z,100078.59
2023-03-19T15:19:16.982Z,100074.59
2023-03-19T15:21:44.927Z,100067.50
2023-03-19T15:24:16.383Z,100074.16
2023-03-19T15:26:44.536Z,100046.00
2023-03-19T15:29:13.623Z,100073.94
2023-03-19T15:31:51.582Z,100071.00
2023-03-19T15:34:22.556Z,100068.47
2023-03-19T15:36:52.913Z,100063.03
2023-03-19T15:39:22.830Z,100063.03
2023-03-19T15:41:50.923Z,100068.44
2023-03-19T15:44:20.371Z,100068.38
2023-03-19T15:46:48.326Z,100073.78
2023-03-19T15:49:17.419Z,100077.69
2023-03-19T15:51:45.474Z,100068.91
2023-03-19T15:54:13.417Z,100068.06
2023-03-19T15:56:42.733Z,100071.56
2023-03-19T15:59:10.887Z,100082.56
2023-03-19T16:01:39.013Z,100082.06
2023-03-19T16:04:10.350Z,100079.91
2023-03-19T16:06:39.340Z,100079.22
2023-03-19T16:09:18.732Z,100084.59
2023-03-19T16:11:49.007Z,100085.97
2023-03-19T16:14:24.251Z,100089.84
2023-03-19T16:16:52.322Z,100085.19
2023-03-19T16:19:33.939Z,100091.78
2023-03-19T16:22:01.958Z,100089.63
2023-03-19T16:24:33.639Z,100093.47
2023-03-19T16:27:04.776Z,100092.53
2023-03-19T16:29:35.469Z,100091.66
2023-03-19T16:32:04.426Z,100104.63
2023-03-19T16:34:37.737Z,100100.00
2023-03-19T16:37:26.899Z,100094.44
2023-03-19T16:39:55.801Z,100092.31
2023-03-19T16:42:37.943Z,100095.06
2023-03-19T16:45:20.308Z,100097.03
2023-03-19T16:47:48.770Z,100100.22
2023-03-19T16:50:17.404Z,100102.09
2023-03-19T16:52:46.123Z,100101.91
2023-03-19T16:55:19.719Z,100108.78
2023-03-19T16:57:55.299Z,100106.25
2023-03-19T17:00:24.697Z,100099.97
2023-03-19T17:02:53.036Z,100104.16
2023-03-19T17:05:21.182Z,100109.31
2023-03-19T17:07:49.179Z,100109.63
2023-03-19T17:10:17.477Z,100118.44
2023-03-19T17:12:46.217Z,100113.66
2023-03-19T17:15:23.263Z,100121.28
2023-03-19T17:17:51.238Z,100122.88
2023-03-19T17:20:19.426Z,100127.16
2023-03-19T17:22:47.390Z,100120.47
2023-03-19T17:25:15.907Z,100130.09
2023-03-19T17:27:43.863Z,100128.44
2023-03-19T17:30:12.448Z,100132.81
2023-03-19T17:32:42.932Z,100125.47
2023-03-19T17:35:15.244Z,100132.72
2023-03-19T17:37:43.174Z,100141.78
2023-03-19T17:40:17.288Z,100147.34
2023-03-19T17:42:45.452Z,100147.53
2023-03-19T17:45:15.105Z,100153.09
2023-03-19T17:47:44.488Z,100160.78
2023-03-19T17:50:16.666Z,100153.56
2023-03-19T17:52:45.769Z,100160.44
2023-03-19T17:55:17.353Z,100152.38
2023-03-19T17:57:45.347Z,100156.41
2023-03-19T18:00:14.497Z,100152.38
2023-03-19T18:02:42.461Z,100161.09
2023-03-19T18:05:17.624Z,100158.41
2023-03-19T18:07:45.664Z,100158.91
2023-03-19T18:10:20.192Z,100160.75
2023-03-19T18:12:49.408Z,100157.38
2023-03-19T18:15:17.592Z,100153.16
2023-03-19T18:17:48.401Z,100158.84
2023-03-19T18:20:18.675Z,100158.34
2023-03-19T18:22:46.676Z,100155.31
2023-03-19T18:25:18.354Z,100159.66
2023-03-19T18:27:46.451Z,100161.97
2023-03-19T18:30:15.848Z,100157.25
2023-03-19T18:32:45.706Z,100159.06
2023-03-19T18:35:17.654Z,100158.88
2023-03-19T18:37:46.195Z,100156.66
2023-03-19T18:40:15.708Z,100154.47
2023-03-19T18:42:43.785Z,100159.31
2023-03-19T18:45:13.357Z,100160.47
2023-03-19T18:47:41.383Z,100156.44
2023-03-19T18:50:18.841Z,100159.28
2023-03-19T18:52:46.839Z,100157.06
2023-03-19T18:55:14.919Z,100149.66
2023-03-19T18:57:52.617Z,100155.03
2023-03-19T19:00:22.395Z,100153.00
2023-03-19T19:02:50.338Z,100145.91
2023-03-19T19:05:22.483Z,100154.94
2023-03-19T19:07:50.555Z,100148.50
2023-03-19T19:10:18.721Z,100147.66
2023-03-19T19:12:47.786Z,100154.50
2023-03-19T19:15:22.795Z,100151.97
2023-03-19T19:17:50.731Z,100153.16
2023-03-19T19:20:21.556Z,100154.59
2023-03-19T19:22:51.359Z,100155.44
2023-03-19T19:25:19.712Z,100155.75
2023-03-19T19:27:48.501Z,100156.59
2023-03-19T19:30:18.476Z,100154.91
2023-03-19T19:32:46.770Z,100147.03
2023-03-19T19:35:22.805Z,100147.34
2023-03-19T19:37:51.021Z,100150.84
2023-03-19T19:40:20.818Z,100147.34
2023-03-19T19:42:51.486Z,100145.66
2023-03-19T19:45:26.685Z,100143.97
2023-03-19T19:47:54.636Z,100156.66
2023-03-19T19:50:25.527Z,100143.97
2023-03-19T19:52:54.001Z,100140.28
2023-03-19T19:55:22.004Z,100137.91
2023-03-19T19:57:50.038Z,100142.28
2023-03-19T20:00:22.540Z,100142.97
2023-03-19T20:02:50.490Z,100140.28
2023-03-19T20:05:21.687Z,100135.22
2023-03-19T20:07:51.736Z,100130.22
2023-03-19T20:10:19.825Z,100134.19
2023-03-19T20:12:51.180Z,100132.34
2023-03-19T20:15:23.167Z,100131.50
2023-03-19T20:17:51.904Z,100137.84
2023-03-19T20:20:21.484Z,100128.81
2023-03-19T20:22:50.960Z,100134.47
2023-03-19T20:25:19.516Z,100134.81
2023-03-19T20:27:47.578Z,100135.13
2023-03-19T20:30:26.281Z,100131.25
2023-03-19T20:32:54.722Z,100142.69
2023-03-19T20:35:24.140Z,100137.81
2023-03-19T20:37:53.899Z,100136.28
2023-03-19T20:40:22.938Z,100140.94
2023-03-19T20:42:51.623Z,100133.53
2023-03-19T20:45:21.027Z,100138.19
2023-03-19T20:47:49.182Z,100130.31
2023-03-19T20:50:18.454Z,100133.47
2023-03-19T20:52:46.384Z,100145.09
2023-03-19T20:55:18.765Z,100142.00
2023-03-19T20:57:47.799Z,100149.75
2023-03-19T21:00:21.176Z,100148.06
2023-03-19T21:02:49.971Z,100147.97
2023-03-19T21:05:18.259Z,100153.34
2023-03-19T21:07:47.048Z,100149.66
2023-03-19T21:10:22.830Z,100140.44
2023-03-19T21:12:50.871Z,100145.94
2023-03-19T21:15:18.860Z,100145.38
2023-03-19T21:17:46.880Z,100150.88
2023-03-19T21:20:19.163Z,100155.16
2023-03-19T21:22:48.357Z,100142.75
2023-03-19T21:25:20.773Z,100148.09
2023-03-19T21:27:51.089Z,100150.50
2023-03-19T21:30:19.317Z,100148.66
2023-03-19T21:32:47.268Z,100144.44
2023-03-19T21:35:19.467Z,100146.41
2023-03-19T21:37:47.748Z,100140.38
2023-03-19T21:40:17.052Z,100141.69
2023-03-19T21:42:46.928Z,100136.63
2023-03-19T21:45:17.582Z,100126.81
2023-03-19T21:47:45.797Z,100142.88
2023-03-19T21:50:18.303Z,100143.16
2023-03-19T21:52:58.735Z,100146.28
2023-03-19T21:55:29.838Z,100142.78
2023-03-19T21:57:59.269Z,100146.06
2023-03-19T22:00:27.268Z,100136.50
2023-03-19T22:02:55.802Z,100136.72
2023-03-19T22:05:25.499Z,100138.69
2023-03-19T22:07:53.524Z,100154.31
2023-03-19T22:10:22.497Z,100146.59
2023-03-19T22:12:50.524Z,100152.91
2023-03-19T22:15:25.093Z,100148.41
2023-03-19T22:17:53.071Z,100146.91
2023-03-19T22:20:22.019Z,100151.69
2023-03-19T22:22:50.049Z,100148.63
2023-03-19T22:25:18.544Z,100147.22
2023-03-19T22:27:47.415Z,100152.16
2023-03-19T22:30:21.346Z,100137.41
2023-03-19T22:32:50.700Z,100141.94
2023-03-19T22:35:18.908Z,100136.72
2023-03-19T22:37:47.027Z,100131.00
2023-03-19T22:40:16.221Z,100136.63
2023-03-19T22:42:44.319Z,100137.59
2023-03-19T22:45:18.625Z,100135.22
2023-03-19T22:47:46.638Z,100136.34
2023-03-19T22:50:20.684Z,100136.34
2023-03-19T22:52:48.938Z,100139.41
2023-03-19T22:55:17.149Z,100141.09
2023-03-19T22:57:45.129Z,100146.72
2023-03-19T23:00:16.138Z,100133.25
2023-03-19T23:02:44.649Z,100140.69
2023-03-19T23:05:28.601Z,100142.34
2023-03-19T23:07:56.568Z,100149.00
2023-03-19T23:10:26.859Z,100139.28
2023-03-19T23:12:55.050Z,100138.31
2023-03-19T23:15:23.267Z,100138.31
2023-03-19T23:17:52.592Z,100138.19
2023-03-19T23:20:21.636Z,100134.13
2023-03-19T23:22:51.028Z,100125.00
2023-03-19T23:25:19.812Z,100112.53
2023-03-19T23:27:47.745Z,100114.78
2023-03-19T23:30:24.439Z,100120.13
2023-03-19T23:32:53.238Z,100128.31
2023-03-19T23:35:22.578Z,100120.72
2023-03-19T23:37:51.862Z,100121.69
2023-03-19T23:40:19.928Z,100122.97
2023-03-19T23:42:48.803Z,100120.44
2023-03-19T23:45:34.322Z,100101.09
2023-03-19T23:48:04.139Z,100111.47
2023-03-19T23:50:32.204Z,100107.53
2023-03-19T23:53:01.595Z,100116.69
2023-03-19T23:55:29.841Z,100118.81
2023-03-19T23:57:57.931Z,100114.31
